createdAt,value
2019-01-10T00:01:45.743Z,3.17
2019-01-10T00:04:12.435Z,3.30
2019-01-10T00:06:39.564Z,2.90
2019-01-10T00:09:06.475Z,3.00
2019-01-10T00:11:33.275Z,2.92
2019-01-10T00:13:59.979Z,3.15
2019-01-10T00:16:26.775Z,3.20
2019-01-10T00:18:53.775Z,3.50
2019-01-10T00:21:20.471Z,3.60
2019-01-10T00:23:47.279Z,3.42
2019-01-10T00:26:13.983Z,3.25
2019-01-10T00:28:40.684Z,2.60
2019-01-10T00:31:07.375Z,3.20
2019-01-10T00:33:34.188Z,3.62
2019-01-10T00:36:00.891Z,3.75
2019-01-10T00:38:27.592Z,3.30
2019-01-10T00:40:54.395Z,2.83
2019-01-10T00:43:21.099Z,3.33
2019-01-10T00:45:48.044Z,3.20
2019-01-10T00:48:14.747Z,3.47
2019-01-10T00:50:41.451Z,3.05
2019-01-10T00:53:08.252Z,3.42
2019-01-10T00:55:34.955Z,3.25
2019-01-10T00:58:01.657Z,3.90
2019-01-10T01:00:28.561Z,3.12
2019-01-10T01:02:55.367Z,3.45
2019-01-10T01:05:22.767Z,3.65
2019-01-10T01:07:49.856Z,3.77
2019-01-10T01:10:19.052Z,3.08
2019-01-10T01:12:45.865Z,3.20
2019-01-10T01:15:14.076Z,2.80
2019-01-10T01:17:40.984Z,3.10
2019-01-10T01:20:08.864Z,3.42
2019-01-10T01:22:35.572Z,3.50
2019-01-10T01:25:03.344Z,3.12
2019-01-10T01:27:30.043Z,2.98
2019-01-10T01:29:56.755Z,3.30
2019-01-10T01:32:23.467Z,2.45
2019-01-10T01:34:50.166Z,2.75
2019-01-10T01:37:16.871Z,3.15
2019-01-10T01:39:43.686Z,2.83
2019-01-10T01:42:10.383Z,2.75
2019-01-10T01:44:37.083Z,2.92
2019-01-10T01:47:04.217Z,3.20
2019-01-10T01:49:50.564Z,3.02
2019-01-10T01:52:17.255Z,3.00
2019-01-10T01:54:43.950Z,2.83
2019-01-10T01:57:10.744Z,3.25
2019-01-10T01:59:37.442Z,2.90
2019-01-10T02:02:04.239Z,3.00
2019-01-10T02:04:31.285Z,3.30
2019-01-10T02:06:58.907Z,3.60
2019-01-10T02:09:25.707Z,2.77
2019-01-10T02:11:52.591Z,3.50
2019-01-10T02:14:19.282Z,3.33
2019-01-10T02:16:45.979Z,3.08
2019-01-10T02:19:12.662Z,3.25
2019-01-10T02:21:39.371Z,3.02
2019-01-10T02:24:06.155Z,2.92
2019-01-10T02:26:32.859Z,3.42
2019-01-10T02:28:59.659Z,3.47
2019-01-10T02:31:26.461Z,3.30
2019-01-10T02:33:53.155Z,2.83
2019-01-10T02:36:19.944Z,3.00
2019-01-10T02:38:46.644Z,3.22
2019-01-10T02:41:13.382Z,3.20
2019-01-10T02:43:40.080Z,3.30
2019-01-10T02:46:06.874Z,2.98
2019-01-10T02:48:33.655Z,3.22
2019-01-10T02:51:00.470Z,3.30
2019-01-10T02:53:27.245Z,3.80
2019-01-10T02:55:53.944Z,3.33
2019-01-10T02:58:20.631Z,3.10
2019-01-10T03:00:47.346Z,3.65
2019-01-10T03:03:14.142Z,3.52
2019-01-10T03:05:40.955Z,3.30
2019-01-10T03:08:07.639Z,4.00
2019-01-10T03:10:34.440Z,3.60
2019-01-10T03:13:01.139Z,3.52
2019-01-10T03:15:27.925Z,3.20
2019-01-10T03:17:55.015Z,3.58
2019-01-10T03:20:22.158Z,4.22
2019-01-10T03:22:49.216Z,3.35
2019-01-10T03:25:16.486Z,3.50
2019-01-10T03:27:43.396Z,3.47
2019-01-10T03:30:18.704Z,3.40
2019-01-10T03:32:45.584Z,3.08
2019-01-10T03:35:12.486Z,3.17
2019-01-10T03:37:39.163Z,3.22
2019-01-10T03:40:09.242Z,3.08
2019-01-10T03:42:36.023Z,2.90
2019-01-10T03:45:03.956Z,3.27
2019-01-10T03:47:30.658Z,3.10
2019-01-10T03:49:57.454Z,2.98
2019-01-10T03:52:24.260Z,3.00
2019-01-10T03:54:51.563Z,3.45
2019-01-10T03:57:18.267Z,3.65
2019-01-10T03:59:44.981Z,3.20
2019-01-10T04:02:11.793Z,2.85
2019-01-10T04:04:38.495Z,3.25
2019-01-10T04:07:05.211Z,3.12
2019-01-10T04:09:32.023Z,3.37
2019-01-10T04:11:58.740Z,3.45
2019-01-10T04:14:25.443Z,3.05
2019-01-10T04:16:52.348Z,3.70
2019-01-10T04:19:19.043Z,3.45
2019-01-10T04:21:45.763Z,3.30
2019-01-10T04:24:12.574Z,3.15
2019-01-10T04:26:39.287Z,3.70
2019-01-10T04:29:05.999Z,3.05
2019-01-10T04:31:32.703Z,3.10
2019-01-10T04:33:59.412Z,3.20
2019-01-10T04:36:26.117Z,2.95
2019-01-10T04:38:52.819Z,3.10
2019-01-10T04:41:19.517Z,3.37
2019-01-10T04:43:46.229Z,3.10
2019-01-10T04:46:12.931Z,3.55
2019-01-10T04:48:39.628Z,3.70
2019-01-10T04:51:06.335Z,3.70
2019-01-10T04:53:33.027Z,3.95
2019-01-10T04:55:59.734Z,3.35
2019-01-10T04:58:26.519Z,3.75
2019-01-10T05:00:53.455Z,3.20
2019-01-10T05:03:20.147Z,3.58
2019-01-10T05:05:46.852Z,3.70
2019-01-10T05:08:13.572Z,3.50
2019-01-10T05:10:40.275Z,4.08
2019-01-10T05:13:06.977Z,3.20
2019-01-10T05:15:33.923Z,3.33
2019-01-10T05:18:00.632Z,3.30
2019-01-10T05:20:27.340Z,3.52
2019-01-10T05:22:54.148Z,3.30
2019-01-10T05:25:20.861Z,3.25
2019-01-10T05:27:47.664Z,3.50
2019-01-10T05:30:24.229Z,3.67
2019-01-10T05:32:51.152Z,3.30
2019-01-10T05:35:18.051Z,3.77
2019-01-10T05:37:44.752Z,4.08
2019-01-10T05:40:11.708Z,3.52
2019-01-10T05:42:38.419Z,3.70
2019-01-10T05:45:06.740Z,3.33
2019-01-10T05:47:33.447Z,3.67
2019-01-10T05:50:00.209Z,3.98
2019-01-10T05:52:27.061Z,3.72
2019-01-10T05:54:53.751Z,4.00
2019-01-10T05:57:20.451Z,3.40
2019-01-10T05:59:47.167Z,3.65
2019-01-10T06:02:13.915Z,3.50
2019-01-10T06:04:40.627Z,3.98
2019-01-10T06:07:07.336Z,4.28
2019-01-10T06:09:34.039Z,3.80
2019-01-10T06:12:00.739Z,3.90
2019-01-10T06:14:35.379Z,3.65
2019-01-10T06:16:56.051Z,3.42
2019-01-10T06:19:26.896Z,4.33
2019-01-10T06:21:51.471Z,3.77
2019-01-10T06:24:18.187Z,3.85
2019-01-10T06:26:44.887Z,3.52
2019-01-10T06:29:11.595Z,3.40
2019-01-10T06:31:38.322Z,3.77
2019-01-10T06:34:06.510Z,4.05
2019-01-10T06:36:33.341Z,4.58
2019-01-10T06:39:00.057Z,4.30
2019-01-10T06:41:26.760Z,3.87
2019-01-10T06:43:53.463Z,4.50
2019-01-10T06:46:20.172Z,4.30
2019-01-10T06:48:46.879Z,4.50
2019-01-10T06:51:13.595Z,4.30
2019-01-10T06:53:40.291Z,4.20
2019-01-10T06:56:06.991Z,5.03
2019-01-10T06:58:34.019Z,4.60
2019-01-10T07:01:00.725Z,4.17
2019-01-10T07:03:27.431Z,3.83
2019-01-10T07:05:54.146Z,4.40
2019-01-10T07:08:20.852Z,4.47
2019-01-10T07:10:47.555Z,4.37
2019-01-10T07:13:14.284Z,4.40
2019-01-10T07:15:40.987Z,4.28
2019-01-10T07:18:07.695Z,5.37
2019-01-10T07:20:39.147Z,4.78
2019-01-10T07:23:05.951Z,4.42
2019-01-10T07:25:32.780Z,4.65
2019-01-10T07:28:22.635Z,4.87
2019-01-10T07:30:49.443Z,4.30
2019-01-10T07:33:16.141Z,4.90
2019-01-10T07:35:42.843Z,4.35
2019-01-10T07:38:09.547Z,4.55
2019-01-10T07:40:38.084Z,4.70
2019-01-10T07:43:04.787Z,4.53
2019-01-10T07:45:31.492Z,4.25
2019-01-10T07:47:58.204Z,4.95
2019-01-10T07:50:30.407Z,4.65
2019-01-10T07:52:57.229Z,4.37
2019-01-10T07:55:23.983Z,4.97
2019-01-10T07:57:50.691Z,4.95
2019-01-10T08:00:17.609Z,4.75
2019-01-10T08:02:44.757Z,5.75
2019-01-10T08:05:12.177Z,6.33
2019-01-10T08:07:39.092Z,5.67
2019-01-10T08:10:09.967Z,5.50
2019-01-10T08:12:37.535Z,5.20
2019-01-10T08:15:11.835Z,5.22
2019-01-10T08:17:34.403Z,5.20
2019-01-10T08:20:01.177Z,4.87
2019-01-10T08:22:28.283Z,4.80
2019-01-10T08:24:55.696Z,5.80
2019-01-10T08:27:22.503Z,5.53
2019-01-10T08:29:49.199Z,5.12
2019-01-10T08:32:15.924Z,5.80
2019-01-10T08:34:42.623Z,6.10
2019-01-10T08:37:09.425Z,5.65
2019-01-10T08:39:36.135Z,5.72
2019-01-10T08:42:03.403Z,6.35
2019-01-10T08:44:30.126Z,5.80
2019-01-10T08:46:56.815Z,4.90
2019-01-10T08:49:23.627Z,5.97
2019-01-10T08:51:50.436Z,5.87
2019-01-10T08:54:17.139Z,5.75
2019-01-10T08:56:43.832Z,5.80
2019-01-10T08:59:10.623Z,4.97
2019-01-10T09:01:37.455Z,6.08
2019-01-10T09:04:04.157Z,6.35
2019-01-10T09:06:30.850Z,5.17
2019-01-10T09:08:57.561Z,5.92
2019-01-10T09:11:24.279Z,5.70
2019-01-10T09:13:50.968Z,6.83
2019-01-10T09:16:17.779Z,5.97
2019-01-10T09:18:44.498Z,6.20
2019-01-10T09:21:11.203Z,5.83
2019-01-10T09:23:37.912Z,5.40
2019-01-10T09:26:04.716Z,5.17
2019-01-10T09:28:31.419Z,6.20
2019-01-10T09:30:58.125Z,5.55
2019-01-10T09:33:24.846Z,5.20
2019-01-10T09:35:51.893Z,4.92
2019-01-10T09:38:18.962Z,5.72
2019-01-10T09:40:45.975Z,6.17
2019-01-10T09:43:12.786Z,6.50
2019-01-10T09:45:43.367Z,5.87
2019-01-10T09:48:08.155Z,5.92
2019-01-10T09:50:35.018Z,5.33
2019-01-10T09:53:01.719Z,5.40
2019-01-10T09:55:28.419Z,5.20
2019-01-10T09:57:55.119Z,5.75
2019-01-10T10:00:27.163Z,5.75
2019-01-10T10:02:53.863Z,5.67
2019-01-10T10:05:20.672Z,5.85
2019-01-10T10:07:47.471Z,5.25
2019-01-10T10:10:16.230Z,6.00
2019-01-10T10:12:43.469Z,5.35
2019-01-10T10:15:11.050Z,5.97
2019-01-10T10:17:37.876Z,5.72
2019-01-10T10:20:06.659Z,6.08
2019-01-10T10:22:33.365Z,5.53
2019-01-10T10:25:00.085Z,5.83
2019-01-10T10:27:26.892Z,5.85
2019-01-10T10:29:53.602Z,5.72
2019-01-10T10:32:20.415Z,5.75
2019-01-10T10:34:47.131Z,6.28
2019-01-10T10:37:13.984Z,6.17
2019-01-10T10:39:40.822Z,5.83
2019-01-10T10:42:07.736Z,5.65
2019-01-10T10:44:34.445Z,5.87
2019-01-10T10:47:02.428Z,6.17
2019-01-10T10:49:29.296Z,5.25
2019-01-10T10:51:56.015Z,5.70
2019-01-10T10:54:22.726Z,5.15
2019-01-10T10:56:49.520Z,5.08
2019-01-10T10:59:16.244Z,4.95
2019-01-10T11:01:42.961Z,5.17
2019-01-10T11:04:09.883Z,4.78
2019-01-10T11:06:36.595Z,4.90
2019-01-10T11:09:09.214Z,4.58
2019-01-10T11:11:35.679Z,4.45
2019-01-10T11:14:02.503Z,3.90
2019-01-10T11:16:29.335Z,4.12
2019-01-10T11:18:56.035Z,4.03
2019-01-10T11:21:22.748Z,4.65
2019-01-10T11:23:49.563Z,4.40
2019-01-10T11:26:16.279Z,3.90
2019-01-10T11:28:43.455Z,4.30
2019-01-10T11:31:10.164Z,4.00
2019-01-10T11:33:36.875Z,3.75
2019-01-10T11:36:03.809Z,4.08
2019-01-10T11:38:30.623Z,4.22
2019-01-10T11:40:57.667Z,3.98
2019-01-10T11:43:24.478Z,4.30
2019-01-10T11:45:51.295Z,4.00
2019-01-10T11:48:18.133Z,3.90
2019-01-10T11:50:44.839Z,4.80
2019-01-10T11:53:11.553Z,4.10
2019-01-10T11:55:38.356Z,4.05
2019-01-10T11:58:05.163Z,3.92
2019-01-10T12:00:32.851Z,4.08
2019-01-10T12:03:01.339Z,3.77
2019-01-10T12:05:28.070Z,4.03
2019-01-10T12:07:54.884Z,3.90
2019-01-10T12:10:21.891Z,3.80
2019-01-10T12:12:48.612Z,3.72
2019-01-10T12:15:15.681Z,3.40
2019-01-10T12:17:42.658Z,3.70
2019-01-10T12:20:10.683Z,3.33
2019-01-10T12:22:37.887Z,3.30
2019-01-10T12:25:06.919Z,3.70
2019-01-10T12:27:33.618Z,4.08
2019-01-10T12:30:00.343Z,3.52
2019-01-10T12:32:27.063Z,3.58
2019-01-10T12:34:54.159Z,3.95
2019-01-10T12:37:20.875Z,3.40
2019-01-10T12:39:47.792Z,3.67
2019-01-10T12:42:14.508Z,2.90
2019-01-10T12:44:41.229Z,3.52
2019-01-10T12:47:08.347Z,3.98
2019-01-10T12:49:35.159Z,3.35
2019-01-10T12:52:01.879Z,2.90
2019-01-10T12:54:28.587Z,2.95
2019-01-10T12:56:55.301Z,3.10
2019-01-10T12:59:22.014Z,2.83
2019-01-10T13:01:48.747Z,3.40
2019-01-10T13:04:15.467Z,3.10
2019-01-10T13:06:42.273Z,2.83
2019-01-10T13:09:09.074Z,2.67
2019-01-10T13:11:35.787Z,2.90
2019-01-10T13:14:05.480Z,2.87
2019-01-10T13:16:31.526Z,2.92
2019-01-10T13:18:58.227Z,3.20
2019-01-10T13:21:24.960Z,2.67
2019-01-10T13:23:51.676Z,2.90
2019-01-10T13:26:18.415Z,2.90
2019-01-10T13:28:45.140Z,2.65
2019-01-10T13:31:11.942Z,2.70
2019-01-10T13:33:38.664Z,2.70
2019-01-10T13:36:05.368Z,2.80
2019-01-10T13:38:32.179Z,2.90
2019-01-10T13:40:59.099Z,2.80
2019-01-10T13:43:25.817Z,2.63
2019-01-10T13:45:52.620Z,2.63
2019-01-10T13:48:19.533Z,2.40
2019-01-10T13:50:46.340Z,2.80
2019-01-10T13:53:13.375Z,2.35
2019-01-10T13:55:40.183Z,2.50
2019-01-10T13:58:07.127Z,2.50
2019-01-10T14:00:35.776Z,2.80
2019-01-10T14:03:03.180Z,2.40
2019-01-10T14:05:30.083Z,2.50
2019-01-10T14:07:57.239Z,2.17
2019-01-10T14:10:24.151Z,2.57
2019-01-10T14:12:51.076Z,2.70
2019-01-10T14:15:29.879Z,2.30
2019-01-10T14:17:56.694Z,2.13
2019-01-10T14:20:23.503Z,2.70
2019-01-10T14:22:50.311Z,2.30
2019-01-10T14:25:17.271Z,2.10
2019-01-10T14:27:44.091Z,2.23
2019-01-10T14:30:17.507Z,2.20
2019-01-10T14:32:44.216Z,2.25
2019-01-10T14:35:11.127Z,2.60
2019-01-10T14:37:38.037Z,2.12
2019-01-10T14:40:05.397Z,2.65
2019-01-10T14:42:32.099Z,2.23
2019-01-10T14:44:58.941Z,2.70
2019-01-10T14:47:25.984Z,2.77
2019-01-10T14:49:52.799Z,2.20
2019-01-10T14:52:19.604Z,2.13
2019-01-10T14:54:46.433Z,2.50
2019-01-10T14:57:13.127Z,2.53
2019-01-10T14:59:39.830Z,2.60
2019-01-10T15:02:06.732Z,2.60
2019-01-10T15:04:33.444Z,2.20
2019-01-10T15:07:00.140Z,2.73
2019-01-10T15:09:26.844Z,2.50
2019-01-10T15:11:53.555Z,2.30
2019-01-10T15:14:20.270Z,2.80
2019-01-10T15:16:47.072Z,2.57
2019-01-10T15:19:13.787Z,2.60
2019-01-10T15:21:40.605Z,2.33
2019-01-10T15:24:07.416Z,2.40
2019-01-10T15:26:34.127Z,2.93
2019-01-10T15:29:00.832Z,2.65
2019-01-10T15:31:27.535Z,2.30
2019-01-10T15:33:54.343Z,2.50
2019-01-10T15:36:21.152Z,3.10
2019-01-10T15:38:47.868Z,2.60
2019-01-10T15:41:14.687Z,2.63
2019-01-10T15:43:41.605Z,3.00
2019-01-10T15:46:08.427Z,3.20
2019-01-10T15:48:35.141Z,3.60
2019-01-10T15:51:01.948Z,4.47
2019-01-10T15:53:28.651Z,4.03
2019-01-10T15:55:55.363Z,3.57
2019-01-10T15:58:25.238Z,3.10
2019-01-10T16:00:51.935Z,3.07
2019-01-10T16:03:18.657Z,3.03
2019-01-10T16:05:45.380Z,3.77
2019-01-10T16:08:12.183Z,3.02
2019-01-10T16:10:38.899Z,3.47
2019-01-10T16:13:05.606Z,4.08
2019-01-10T16:15:32.323Z,4.58
2019-01-10T16:17:59.140Z,4.20
2019-01-10T16:20:25.963Z,3.87
2019-01-10T16:22:53.048Z,3.43
2019-01-10T16:25:19.897Z,3.45
2019-01-10T16:27:46.895Z,3.75
2019-01-10T16:30:27.340Z,3.35
2019-01-10T16:32:54.207Z,3.58
2019-01-10T16:35:21.007Z,5.37
2019-01-10T16:37:48.108Z,3.23
2019-01-10T16:40:15.496Z,2.37
2019-01-10T16:42:42.299Z,3.33
2019-01-10T16:45:12.607Z,2.40
2019-01-10T16:47:39.420Z,2.27
2019-01-10T16:50:07.879Z,2.87
2019-01-10T16:52:34.743Z,2.30
2019-01-10T16:55:01.703Z,3.60
2019-01-10T16:57:28.473Z,3.12
2019-01-10T16:59:55.259Z,3.47
2019-01-10T17:02:22.020Z,2.52
2019-01-10T17:04:48.728Z,2.47
2019-01-10T17:07:15.482Z,2.05
2019-01-10T17:09:42.248Z,2.60
2019-01-10T17:12:08.964Z,2.15
2019-01-10T17:14:35.679Z,1.82
2019-01-10T17:17:02.395Z,1.98
2019-01-10T17:19:29.123Z,1.92
2019-01-10T17:21:55.948Z,1.87
2019-01-10T17:24:22.651Z,1.95
2019-01-10T17:26:49.367Z,1.72
2019-01-10T17:29:16.116Z,2.00
2019-01-10T17:31:42.833Z,2.20
2019-01-10T17:34:09.539Z,2.12
2019-01-10T17:36:36.252Z,1.80
2019-01-10T17:39:06.926Z,2.00
2019-01-10T17:41:33.738Z,2.05
2019-01-10T17:44:00.464Z,1.80
2019-01-10T17:46:27.267Z,1.80
2019-01-10T17:48:54.089Z,1.80
2019-01-10T17:51:20.794Z,1.82
2019-01-10T17:53:47.504Z,3.20
2019-01-10T17:56:14.279Z,3.20
2019-01-10T17:58:40.991Z,13.88
2019-01-10T18:01:07.692Z,3.52
2019-01-10T18:03:39.957Z,2.35
2019-01-10T18:06:03.739Z,1.90
2019-01-10T18:08:30.451Z,1.90
2019-01-10T18:10:57.278Z,1.65
2019-01-10T18:13:24.319Z,2.00
2019-01-10T18:15:51.027Z,2.60
2019-01-10T18:18:17.849Z,3.33
2019-01-10T18:20:44.551Z,3.25
2019-01-10T18:23:12.101Z,3.20
2019-01-10T18:25:39.667Z,2.45
2019-01-10T18:28:06.589Z,3.40
2019-01-10T18:30:33.763Z,3.33
2019-01-10T18:33:00.579Z,3.42
2019-01-10T18:35:27.411Z,3.37
2019-01-10T18:37:54.219Z,3.15
2019-01-10T18:40:21.231Z,3.27
2019-01-10T18:42:48.051Z,3.05
2019-01-10T18:45:35.605Z,3.08
2019-01-10T18:48:02.641Z,2.90
2019-01-10T18:50:29.447Z,2.65
2019-01-10T18:52:56.159Z,2.90
2019-01-10T18:55:23.066Z,2.60
2019-01-10T18:57:49.906Z,2.52
2019-01-10T19:00:21.614Z,2.70
2019-01-10T19:02:48.625Z,2.30
2019-01-10T19:05:15.355Z,2.62
2019-01-10T19:07:42.154Z,2.35
2019-01-10T19:10:10.315Z,2.95
2019-01-10T19:12:37.018Z,2.52
2019-01-10T19:15:05.259Z,2.40
2019-01-10T19:17:31.967Z,2.62
2019-01-10T19:19:58.691Z,2.70
2019-01-10T19:22:25.419Z,2.40
2019-01-10T19:24:52.111Z,2.20
2019-01-10T19:27:18.829Z,2.72
2019-01-10T19:29:45.544Z,2.08
2019-01-10T19:32:12.259Z,2.30
2019-01-10T19:34:39.108Z,2.55
2019-01-10T19:37:05.815Z,2.55
2019-01-10T19:39:32.635Z,2.55
2019-01-10T19:41:59.371Z,2.42
2019-01-10T19:44:26.331Z,2.83
2019-01-10T19:46:53.136Z,2.60
2019-01-10T19:49:19.855Z,2.98
2019-01-10T19:51:46.671Z,3.20
2019-01-10T19:54:13.404Z,3.35
2019-01-10T19:56:40.133Z,3.70
2019-01-10T19:59:07.239Z,3.60
2019-01-10T20:01:37.644Z,3.70
2019-01-10T20:04:02.859Z,3.42
2019-01-10T20:06:29.675Z,3.95
2019-01-10T20:08:56.386Z,4.37
2019-01-10T20:11:23.114Z,4.28
2019-01-10T20:13:56.323Z,4.30
2019-01-10T20:16:23.044Z,4.92
2019-01-10T20:18:49.753Z,4.45
2019-01-10T20:21:16.559Z,4.53
2019-01-10T20:23:43.373Z,5.30
2019-01-10T20:26:10.180Z,5.42
2019-01-10T20:28:36.987Z,5.33
2019-01-10T20:31:05.264Z,5.60
2019-01-10T20:33:32.315Z,5.35
2019-01-10T20:35:59.024Z,5.03
2019-01-10T20:38:25.936Z,4.95
2019-01-10T20:40:52.643Z,4.42
2019-01-10T20:43:19.558Z,3.85
2019-01-10T20:45:46.267Z,4.47
2019-01-10T20:48:12.992Z,4.80
2019-01-10T20:50:39.695Z,4.95
2019-01-10T20:53:06.619Z,4.95
2019-01-10T20:55:33.323Z,5.20
2019-01-10T20:58:00.132Z,10.15
2019-01-10T21:00:28.435Z,6.05
2019-01-10T21:02:55.289Z,5.75
2019-01-10T21:05:21.998Z,5.05
2019-01-10T21:07:49.486Z,4.83
2019-01-10T21:10:17.082Z,5.10
2019-01-10T21:12:44.036Z,5.33
2019-01-10T21:15:13.943Z,5.60
2019-01-10T21:17:40.959Z,6.37
2019-01-10T21:20:08.187Z,6.17
2019-01-10T21:22:35.007Z,5.30
2019-01-10T21:25:01.807Z,4.75
2019-01-10T21:27:28.529Z,5.30
2019-01-10T21:29:55.255Z,4.45
2019-01-10T21:32:21.985Z,4.55
2019-01-10T21:34:48.695Z,4.58
2019-01-10T21:37:15.408Z,4.75
2019-01-10T21:39:42.291Z,5.40
2019-01-10T21:42:09.328Z,9.20
2019-01-10T21:44:36.044Z,8.23
2019-01-10T21:47:02.963Z,8.65
2019-01-10T21:49:29.675Z,7.17
2019-01-10T21:51:56.388Z,6.33
2019-01-10T21:54:23.091Z,7.05
2019-01-10T21:56:49.805Z,9.20
2019-01-10T21:59:16.513Z,8.23
2019-01-10T22:01:43.242Z,9.05
2019-01-10T22:04:10.043Z,8.80
2019-01-10T22:06:36.763Z,9.13
2019-01-10T22:09:05.851Z,10.72
2019-01-10T22:11:32.570Z,10.72
2019-01-10T22:13:59.271Z,10.25
2019-01-10T22:16:25.984Z,11.57
2019-01-10T22:18:52.704Z,12.20
2019-01-10T22:21:19.691Z,12.37
2019-01-10T22:23:46.466Z,13.20
2019-01-10T22:26:13.219Z,12.98
2019-01-10T22:28:39.921Z,12.78
2019-01-10T22:31:07.429Z,14.45
2019-01-10T22:33:34.343Z,12.95
2019-01-10T22:36:01.647Z,13.93
2019-01-10T22:38:28.359Z,13.65
2019-01-10T22:40:55.067Z,15.38
2019-01-10T22:43:21.791Z,14.73
2019-01-10T22:45:48.492Z,15.70
2019-01-10T22:48:15.211Z,15.48
2019-01-10T22:50:41.914Z,14.80
2019-01-10T22:53:08.624Z,14.98
2019-01-10T22:55:35.436Z,15.63
2019-01-10T22:58:02.264Z,15.13
2019-01-10T23:01:13.452Z,17.30
2019-01-10T23:03:41.385Z,15.45
2019-01-10T23:06:08.191Z,16.17
2019-01-10T23:08:41.936Z,16.80
2019-01-10T23:11:15.674Z,15.38
2019-01-10T23:13:50.075Z,16.97
2019-01-10T23:16:19.203Z,18.27
2019-01-10T23:18:45.911Z,17.27
2019-01-10T23:21:13.027Z,16.17
2019-01-10T23:23:40.179Z,17.35
2019-01-10T23:26:06.988Z,16.05
2019-01-10T23:28:38.614Z,16.95
2019-01-10T23:31:07.775Z,18.75
2019-01-10T23:33:34.484Z,16.00
2019-01-10T23:36:03.238Z,18.37
2019-01-10T23:38:30.760Z,16.97
2019-01-10T23:40:58.472Z,16.35
2019-01-10T23:43:25.399Z,18.90
2019-01-10T23:45:52.303Z,17.52
2019-01-10T23:48:19.015Z,18.30
2019-01-10T23:50:45.927Z,17.55
2019-01-10T23:53:12.839Z,17.10
2019-01-10T23:55:39.991Z,18.95
2019-01-10T23:58:06.794Z,17.12
